createdAt,value
2023-05-02T00:01:15.183Z,7.90
2023-05-02T00:03:42.881Z,8.38
2023-05-02T00:06:11.343Z,8.75
2023-05-02T00:08:38.154Z,10.88
2023-05-02T00:11:05.437Z,9.40
2023-05-02T00:13:32.113Z,8.85
2023-05-02T00:15:58.772Z,8.10
2023-05-02T00:18:25.603Z,9.73
2023-05-02T00:20:52.251Z,9.50
2023-05-02T00:23:18.892Z,8.13
2023-05-02T00:25:46.520Z,8.82
2023-05-02T00:28:13.889Z,9.07
2023-05-02T00:30:47.037Z,9.02
2023-05-02T00:33:15.222Z,9.82
2023-05-02T00:35:42.131Z,8.73
2023-05-02T00:38:09.124Z,9.70
2023-05-02T00:40:46.367Z,9.40
2023-05-02T00:43:13.510Z,10.20
2023-05-02T00:45:41.892Z,9.70
2023-05-02T00:48:09.282Z,9.48
2023-05-02T00:50:41.177Z,10.35
2023-05-02T00:53:09.734Z,11.23
2023-05-02T00:55:36.961Z,9.80
2023-05-02T00:58:08.610Z,9.63
2023-05-02T01:00:41.591Z,9.43
2023-05-02T01:03:32.016Z,9.85
2023-05-02T01:06:16.619Z,10.50
2023-05-02T01:09:17.589Z,10.55
2023-05-02T01:12:14.442Z,11.05
2023-05-02T01:14:50.759Z,10.00
2023-05-02T01:17:19.777Z,10.77
2023-05-02T01:19:57.209Z,10.50
2023-05-02T01:22:26.966Z,9.35
2023-05-02T01:25:11.567Z,9.93
2023-05-02T01:28:01.337Z,9.35
2023-05-02T01:30:30.911Z,8.88
2023-05-02T01:32:59.315Z,9.13
2023-05-02T01:35:27.768Z,8.65
2023-05-02T01:37:57.564Z,10.43
2023-05-02T01:40:26.371Z,10.45
2023-05-02T01:42:54.363Z,10.20
2023-05-02T01:45:22.981Z,9.65
2023-05-02T01:47:51.292Z,9.95
2023-05-02T01:50:23.240Z,9.63
2023-05-02T01:52:52.891Z,10.43
2023-05-02T01:55:20.522Z,10.50
2023-05-02T01:57:48.631Z,11.20
2023-05-02T02:00:18.435Z,9.50
2023-05-02T02:02:47.563Z,9.38
2023-05-02T02:05:14.632Z,9.50
2023-05-02T02:07:41.594Z,9.30
2023-05-02T02:10:08.728Z,9.68
2023-05-02T02:12:54.762Z,9.52
2023-05-02T02:15:35.080Z,10.32
2023-05-02T02:18:09.774Z,10.95
2023-05-02T02:20:36.846Z,9.95
2023-05-02T02:23:07.348Z,10.15
2023-05-02T02:25:35.936Z,9.70
2023-05-02T02:28:02.696Z,9.55
2023-05-02T02:30:29.474Z,10.32
2023-05-02T02:32:56.252Z,9.57
2023-05-02T02:35:23.636Z,10.40
2023-05-02T02:38:07.798Z,9.57
2023-05-02T02:41:06.832Z,10.00
2023-05-02T02:43:40.870Z,9.98
2023-05-02T02:46:34.161Z,9.93
2023-05-02T02:49:18.796Z,10.18
2023-05-02T02:52:24.816Z,9.45
2023-05-02T02:55:06.292Z,9.23
2023-05-02T02:57:32.971Z,9.32
2023-05-02T03:00:24.864Z,9.18
2023-05-02T03:02:53.285Z,10.15
2023-05-02T03:05:22.168Z,9.52
2023-05-02T03:07:49.234Z,9.82
2023-05-02T03:10:16.438Z,8.95
2023-05-02T03:12:43.633Z,9.77
2023-05-02T03:15:30.593Z,10.25
2023-05-02T03:17:57.265Z,10.98
2023-05-02T03:20:23.971Z,10.93
2023-05-02T03:22:50.620Z,11.20
2023-05-02T03:25:17.260Z,11.30
2023-05-02T03:27:43.924Z,11.32
2023-05-02T03:30:10.813Z,10.27
2023-05-02T03:32:37.527Z,9.57
2023-05-02T03:35:04.473Z,10.13
2023-05-02T03:37:31.100Z,9.65
2023-05-02T03:39:58.071Z,10.30
2023-05-02T03:42:24.891Z,9.68
2023-05-02T03:44:54.473Z,8.85
2023-05-02T03:47:21.107Z,9.40
2023-05-02T03:49:47.787Z,8.20
2023-05-02T03:52:14.468Z,9.65
2023-05-02T03:54:41.673Z,8.55
2023-05-02T03:57:08.833Z,8.60
2023-05-02T03:59:35.530Z,9.35
2023-05-02T04:02:02.315Z,7.75
2023-05-02T04:04:29.038Z,8.68
2023-05-02T04:06:55.756Z,9.45
2023-05-02T04:09:25.351Z,9.30
2023-05-02T04:11:52.347Z,8.95
2023-05-02T04:14:19.125Z,8.63
2023-05-02T04:16:52.416Z,8.20
2023-05-02T04:19:19.480Z,9.10
2023-05-02T04:21:46.394Z,9.02
2023-05-02T04:24:13.846Z,8.70
2023-05-02T04:26:40.918Z,9.93
2023-05-02T04:29:07.805Z,8.55
2023-05-02T04:31:35.057Z,9.02
2023-05-02T04:34:01.917Z,9.05
2023-05-02T04:36:28.600Z,8.65
2023-05-02T04:38:55.536Z,9.55
2023-05-02T04:41:23.102Z,9.45
2023-05-02T04:43:49.823Z,10.27
2023-05-02T04:46:18.318Z,9.73
2023-05-02T04:48:45.078Z,9.60
2023-05-02T04:51:11.801Z,9.60
2023-05-02T04:53:38.687Z,9.82
2023-05-02T04:56:05.856Z,11.20
2023-05-02T04:58:32.840Z,8.95
2023-05-02T05:00:59.522Z,10.05
2023-05-02T05:03:26.393Z,10.73
2023-05-02T05:05:53.128Z,10.43
2023-05-02T05:08:19.757Z,10.68
2023-05-02T05:10:46.446Z,10.45
2023-05-02T05:13:13.882Z,9.57
2023-05-02T05:15:40.565Z,10.15
2023-05-02T05:18:07.348Z,11.23
2023-05-02T05:20:34.024Z,10.15
2023-05-02T05:23:00.711Z,12.10
2023-05-02T05:25:27.647Z,12.10
2023-05-02T05:27:55.873Z,9.95
2023-05-02T05:30:22.804Z,10.68
2023-05-02T05:32:49.491Z,10.63
2023-05-02T05:35:16.419Z,11.10
2023-05-02T05:37:43.909Z,10.18
2023-05-02T05:40:10.771Z,11.68
2023-05-02T05:42:37.484Z,12.63
2023-05-02T05:45:04.423Z,11.43
2023-05-02T05:47:31.195Z,11.43
2023-05-02T05:49:58.176Z,11.82
2023-05-02T05:52:25.226Z,11.40
2023-05-02T05:54:57.988Z,11.40
2023-05-02T05:57:24.908Z,11.02
2023-05-02T05:59:51.956Z,12.07
2023-05-02T06:02:19.806Z,11.10
2023-05-02T06:04:46.931Z,11.68
2023-05-02T06:07:13.769Z,11.98
2023-05-02T06:09:40.564Z,11.23
2023-05-02T06:12:07.401Z,10.90
2023-05-02T06:14:34.126Z,11.63
2023-05-02T06:17:00.860Z,11.38
2023-05-02T06:19:27.614Z,11.52
2023-05-02T06:21:54.270Z,11.18
2023-05-02T06:24:21.009Z,11.38
2023-05-02T06:26:47.675Z,11.00
2023-05-02T06:29:14.336Z,12.48
2023-05-02T06:31:41.042Z,12.15
2023-05-02T06:34:07.918Z,11.95
2023-05-02T06:36:34.573Z,11.23
2023-05-02T06:39:01.436Z,13.38
2023-05-02T06:41:28.099Z,11.35
2023-05-02T06:43:54.754Z,10.93
2023-05-02T06:46:21.565Z,10.65
2023-05-02T06:48:48.807Z,10.68
2023-05-02T06:51:15.591Z,11.18
2023-05-02T06:53:42.242Z,13.02
2023-05-02T06:56:08.904Z,12.40
2023-05-02T06:58:35.557Z,10.80
2023-05-02T07:01:02.297Z,12.65
2023-05-02T07:03:29.062Z,10.95
2023-05-02T07:05:55.775Z,11.07
2023-05-02T07:08:23.889Z,11.20
2023-05-02T07:10:50.877Z,10.05
2023-05-02T07:13:17.518Z,9.95
2023-05-02T07:15:44.207Z,11.10
2023-05-02T07:18:10.996Z,12.30
2023-05-02T07:20:38.911Z,11.75
2023-05-02T07:23:05.562Z,10.32
2023-05-02T07:25:32.315Z,10.65
2023-05-02T07:27:58.967Z,11.05
2023-05-02T07:30:25.774Z,11.00
2023-05-02T07:32:52.459Z,10.43
2023-05-02T07:35:19.269Z,11.70
2023-05-02T07:37:46.303Z,10.60
2023-05-02T07:40:13.135Z,10.50
2023-05-02T07:42:41.836Z,11.90
2023-05-02T07:45:09.192Z,9.88
2023-05-02T07:47:36.201Z,10.40
2023-05-02T07:50:06.397Z,10.70
2023-05-02T07:52:33.077Z,10.05
2023-05-02T07:54:59.729Z,10.18
2023-05-02T07:57:26.898Z,9.13
2023-05-02T07:59:53.730Z,9.98
2023-05-02T08:02:21.631Z,9.48
2023-05-02T08:04:49.203Z,9.70
2023-05-02T08:07:16.767Z,8.77
2023-05-02T08:09:43.480Z,10.38
2023-05-02T08:12:10.157Z,9.35
2023-05-02T08:14:36.862Z,9.88
2023-05-02T08:17:03.525Z,9.10
2023-05-02T08:19:30.252Z,8.70
2023-05-02T08:21:56.930Z,9.23
2023-05-02T08:24:23.746Z,9.38
2023-05-02T08:26:50.845Z,8.77
2023-05-02T08:29:17.598Z,14.35
2023-05-02T08:31:44.429Z,9.20
2023-05-02T08:34:11.243Z,8.18
2023-05-02T08:36:37.952Z,7.55
2023-05-02T08:39:04.733Z,7.85
2023-05-02T08:41:31.451Z,7.47
2023-05-02T08:43:59.989Z,7.45
2023-05-02T08:46:29.138Z,7.82
2023-05-02T08:48:59.043Z,8.07
2023-05-02T08:51:28.851Z,7.72
2023-05-02T08:53:57.263Z,9.10
2023-05-02T08:56:25.214Z,7.80
2023-05-02T08:58:52.117Z,6.65
2023-05-02T09:01:22.494Z,7.53
2023-05-02T09:03:49.696Z,7.43
2023-05-02T09:06:18.750Z,6.95
2023-05-02T09:08:49.199Z,7.60
2023-05-02T09:11:16.906Z,7.40
2023-05-02T09:13:51.744Z,8.05
2023-05-02T09:16:22.912Z,6.88
2023-05-02T09:18:57.507Z,7.30
2023-05-02T09:21:26.620Z,8.70
2023-05-02T09:23:55.985Z,7.18
2023-05-02T09:26:32.259Z,9.50
2023-05-02T09:29:01.258Z,8.90
2023-05-02T09:34:16.188Z,7.20
2023-05-02T09:36:51.238Z,6.35
2023-05-02T09:39:20.136Z,6.10
2023-05-02T09:41:48.301Z,4.90
2023-05-02T09:44:18.419Z,5.22
2023-05-02T09:46:47.681Z,6.00
2023-05-02T09:49:15.150Z,5.55
2023-05-02T09:51:43.926Z,6.03
2023-05-02T09:54:10.910Z,5.18
2023-05-02T09:56:57.267Z,4.43
2023-05-02T09:59:24.693Z,5.43
2023-05-02T10:01:59.661Z,5.88
2023-05-02T10:04:27.843Z,6.37
2023-05-02T10:06:55.484Z,4.22
2023-05-02T10:09:22.716Z,4.82
2023-05-02T10:11:56.414Z,5.05
2023-05-02T10:14:29.518Z,6.78
2023-05-02T10:17:09.206Z,7.47
2023-05-02T10:19:48.615Z,4.43
2023-05-02T10:22:19.198Z,3.80
2023-05-02T10:24:49.408Z,4.10
2023-05-02T10:27:16.346Z,5.60
2023-05-02T10:29:43.931Z,6.57
2023-05-02T10:32:11.261Z,7.25
2023-05-02T10:34:40.507Z,5.88
2023-05-02T10:37:07.458Z,6.93
2023-05-02T10:39:34.350Z,4.65
2023-05-02T10:42:03.070Z,4.90
2023-05-02T10:44:36.509Z,4.32
2023-05-02T10:47:22.491Z,4.95
2023-05-02T10:49:52.466Z,4.47
2023-05-02T10:52:41.447Z,8.43
2023-05-02T10:55:18.137Z,7.63
2023-05-02T10:58:00.195Z,7.20
2023-05-02T11:00:30.105Z,5.82
2023-05-02T11:02:57.153Z,5.10
2023-05-02T11:05:25.453Z,9.43
2023-05-02T11:08:19.426Z,6.40
2023-05-02T11:10:47.290Z,5.07
2023-05-02T11:13:14.149Z,4.82
2023-05-02T11:15:40.850Z,6.75
2023-05-02T11:18:12.816Z,5.22
2023-05-02T11:20:44.352Z,5.28
2023-05-02T11:23:17.076Z,5.25
2023-05-02T11:25:48.933Z,5.78
2023-05-02T11:28:37.415Z,5.35
2023-05-02T11:31:05.638Z,6.40
2023-05-02T11:33:32.449Z,5.72
2023-05-02T11:35:59.247Z,8.35
2023-05-02T11:38:34.656Z,6.53
2023-05-02T11:41:02.903Z,5.57
2023-05-02T11:43:31.791Z,5.38
2023-05-02T11:46:01.577Z,5.30
2023-05-02T11:48:28.940Z,5.97
2023-05-02T11:50:58.380Z,5.78
2023-05-02T11:53:26.672Z,14.70
2023-05-02T11:56:01.355Z,19.65
2023-05-02T11:58:30.133Z,7.65
2023-05-02T12:00:57.146Z,5.75
2023-05-02T12:03:32.070Z,5.90
2023-05-02T12:06:12.777Z,6.03
2023-05-02T12:08:40.718Z,7.50
2023-05-02T12:11:07.494Z,6.45
2023-05-02T12:13:34.332Z,7.93
2023-05-02T12:16:01.531Z,9.77
2023-05-02T12:18:28.536Z,9.80
2023-05-02T12:20:56.311Z,9.13
2023-05-02T12:23:26.203Z,7.05
2023-05-02T12:25:53.001Z,6.38
2023-05-02T12:28:20.493Z,6.88
2023-05-02T12:30:49.620Z,6.63
2023-05-02T12:33:17.325Z,4.07
2023-05-02T12:35:48.114Z,3.90
2023-05-02T12:38:23.679Z,3.75
2023-05-02T12:40:57.630Z,3.90
2023-05-02T12:43:24.491Z,3.97
2023-05-02T12:46:08.765Z,3.95
2023-05-02T12:48:35.424Z,8.13
2023-05-02T12:51:02.152Z,2.90
2023-05-02T12:53:40.577Z,5.68
2023-05-02T12:56:08.219Z,5.32
2023-05-02T12:58:46.523Z,3.53
2023-05-02T13:01:15.084Z,3.22
2023-05-02T13:03:43.325Z,3.15
2023-05-02T13:06:10.993Z,3.42
2023-05-02T13:08:37.922Z,3.42
2023-05-02T13:11:04.998Z,2.83
2023-05-02T13:13:32.618Z,2.30
2023-05-02T13:15:59.464Z,3.63
2023-05-02T13:18:28.028Z,3.22
2023-05-02T13:20:54.894Z,3.80
2023-05-02T13:23:21.750Z,3.20
2023-05-02T13:25:48.411Z,3.22
2023-05-02T13:28:15.357Z,4.28
2023-05-02T13:30:42.250Z,4.45
2023-05-02T13:33:09.310Z,4.72
2023-05-02T13:35:36.282Z,4.57
2023-05-02T13:38:03.520Z,5.05
2023-05-02T13:40:30.389Z,5.93
2023-05-02T13:42:57.466Z,4.78
2023-05-02T13:45:24.237Z,5.28
2023-05-02T13:47:51.033Z,6.43
2023-05-02T13:50:17.827Z,7.20
2023-05-02T13:52:46.996Z,6.03
2023-05-02T13:55:15.155Z,5.85
2023-05-02T13:57:41.808Z,5.70
2023-05-02T14:00:09.873Z,5.10
2023-05-02T14:02:37.363Z,6.50
2023-05-02T14:05:04.362Z,3.70
2023-05-02T14:07:31.002Z,4.68
2023-05-02T14:09:57.675Z,4.00
2023-05-02T14:12:24.393Z,3.97
2023-05-02T14:14:51.036Z,5.60
2023-05-02T14:17:17.664Z,4.97
2023-05-02T14:19:44.349Z,4.72
2023-05-02T14:22:10.993Z,4.75
2023-05-02T14:24:37.646Z,4.93
2023-05-02T14:27:04.763Z,4.90
2023-05-02T14:29:31.506Z,4.57
2023-05-02T14:31:58.262Z,4.35
2023-05-02T14:34:26.886Z,3.95
2023-05-02T14:36:53.692Z,4.75
2023-05-02T14:39:20.435Z,4.47
2023-05-02T14:41:47.391Z,4.13
2023-05-02T14:44:14.023Z,4.18
2023-05-02T14:46:41.352Z,4.20
2023-05-02T14:49:08.146Z,4.38
2023-05-02T14:51:37.024Z,4.93
2023-05-02T14:54:04.463Z,4.20
2023-05-02T14:56:31.197Z,4.43
2023-05-02T14:58:57.856Z,3.80
2023-05-02T15:01:24.934Z,4.22
2023-05-02T15:04:05.886Z,4.57
2023-05-02T15:06:35.628Z,4.38
2023-05-02T15:09:02.819Z,4.45
2023-05-02T15:11:29.486Z,4.53
2023-05-02T15:13:58.423Z,3.60
2023-05-02T15:16:27.378Z,4.05
2023-05-02T15:18:54.410Z,3.55
2023-05-02T15:21:21.423Z,3.85
2023-05-02T15:23:48.075Z,4.00
2023-05-02T15:26:14.809Z,3.03
2023-05-02T15:28:41.547Z,3.00
2023-05-02T15:31:08.376Z,2.85
2023-05-02T15:33:35.040Z,2.92
2023-05-02T15:36:01.703Z,2.85
2023-05-02T15:38:28.394Z,3.35
2023-05-02T15:40:55.928Z,3.22
2023-05-02T15:43:22.752Z,4.53
2023-05-02T15:45:59.494Z,3.85
2023-05-02T15:48:30.941Z,4.32
2023-05-02T15:50:57.769Z,3.38
2023-05-02T15:53:24.491Z,2.65
2023-05-02T15:55:52.097Z,2.63
2023-05-02T15:58:19.345Z,2.92
2023-05-02T16:00:49.700Z,3.10
2023-05-02T16:03:16.420Z,2.60
2023-05-02T16:05:43.141Z,3.10
2023-05-02T16:08:10.086Z,3.03
2023-05-02T16:10:39.162Z,2.80
2023-05-02T16:13:06.009Z,2.42
2023-05-02T16:15:32.671Z,2.72
2023-05-02T16:17:59.403Z,3.10
2023-05-02T16:20:26.684Z,2.65
2023-05-02T16:22:53.360Z,3.10
2023-05-02T16:25:20.252Z,3.67
2023-05-02T16:27:47.061Z,2.97
2023-05-02T16:30:13.965Z,3.10
2023-05-02T16:32:40.935Z,2.70
2023-05-02T16:35:10.672Z,2.58
2023-05-02T16:37:37.490Z,2.90
2023-05-02T16:40:05.960Z,3.30
2023-05-02T16:42:33.146Z,3.00
2023-05-02T16:44:59.874Z,2.47
2023-05-02T16:47:27.903Z,2.03
2023-05-02T16:49:56.064Z,2.47
2023-05-02T16:52:22.775Z,2.95
2023-05-02T16:54:49.590Z,2.95
2023-05-02T16:57:19.755Z,2.42
2023-05-02T16:59:51.668Z,2.35
2023-05-02T17:02:20.811Z,2.10
2023-05-02T17:04:49.375Z,2.22
2023-05-02T17:07:16.484Z,2.40
2023-05-02T17:09:44.356Z,1.58
2023-05-02T17:12:12.125Z,1.77
2023-05-02T17:14:41.013Z,1.77
2023-05-02T17:17:07.855Z,1.98
2023-05-02T17:19:34.909Z,1.90
2023-05-02T17:22:02.321Z,1.63
2023-05-02T17:24:29.948Z,1.90
2023-05-02T17:26:56.941Z,1.67
2023-05-02T17:29:23.733Z,2.28
2023-05-02T17:31:50.523Z,2.22
2023-05-02T17:34:17.276Z,2.30
2023-05-02T17:36:44.669Z,2.03
2023-05-02T17:39:13.030Z,1.95
2023-05-02T17:41:39.658Z,2.20
2023-05-02T17:44:06.396Z,2.13
2023-05-02T17:46:33.433Z,2.13
2023-05-02T17:49:00.852Z,1.50
2023-05-02T17:51:28.138Z,1.80
2023-05-02T17:53:54.912Z,1.70
2023-05-02T17:56:21.804Z,1.85
2023-05-02T17:58:48.564Z,1.98
2023-05-02T18:01:15.731Z,2.00
2023-05-02T18:03:43.382Z,2.28
2023-05-02T18:06:15.836Z,2.00
2023-05-02T18:08:43.249Z,1.77
2023-05-02T18:11:17.754Z,2.28
2023-05-02T18:13:44.608Z,3.58
2023-05-02T18:16:12.429Z,2.80
2023-05-02T18:18:39.608Z,2.13
2023-05-02T18:21:06.472Z,2.03
2023-05-02T18:23:33.807Z,2.75
2023-05-02T18:26:00.532Z,2.70
2023-05-02T18:28:27.352Z,3.45
2023-05-02T18:30:53.962Z,2.80
2023-05-02T18:33:20.880Z,3.33
2023-05-02T18:35:50.968Z,1.85
2023-05-02T18:38:18.153Z,1.80
2023-05-02T18:40:45.056Z,2.40
2023-05-02T18:43:11.769Z,2.20
2023-05-02T18:45:38.600Z,2.45
2023-05-02T18:48:05.565Z,2.70
2023-05-02T18:50:32.332Z,6.38
2023-05-02T18:52:58.980Z,2.65
2023-05-02T18:55:25.798Z,3.67
2023-05-02T18:57:52.464Z,3.40
2023-05-02T19:00:20.420Z,2.60
2023-05-02T19:02:47.587Z,2.60
2023-05-02T19:05:14.904Z,3.25
2023-05-02T19:07:41.644Z,2.50
2023-05-02T19:10:08.709Z,4.43
2023-05-02T19:12:35.377Z,3.45
2023-05-02T19:15:03.039Z,2.88
2023-05-02T19:17:30.072Z,2.78
2023-05-02T19:19:58.268Z,4.93
2023-05-02T19:22:27.470Z,9.07
2023-05-02T19:24:54.340Z,4.43
2023-05-02T19:27:21.266Z,11.27
2023-05-02T19:29:47.920Z,5.68
2023-05-02T19:32:15.024Z,5.55
2023-05-02T19:34:42.017Z,4.20
2023-05-02T19:37:08.824Z,5.30
2023-05-02T19:39:35.716Z,7.03
2023-05-02T19:42:03.120Z,9.82
2023-05-02T19:44:30.055Z,4.30
2023-05-02T19:46:56.879Z,4.30
2023-05-02T19:49:23.560Z,5.22
2023-05-02T19:51:50.451Z,5.32
2023-05-02T19:54:17.160Z,4.95
2023-05-02T19:56:44.293Z,4.45
2023-05-02T19:59:11.033Z,4.00
2023-05-02T20:01:37.837Z,4.47
2023-05-02T20:04:04.556Z,4.47
2023-05-02T20:06:32.232Z,5.15
2023-05-02T20:08:59.074Z,5.70
2023-05-02T20:11:26.220Z,5.28
2023-05-02T20:13:54.267Z,5.40
2023-05-02T20:16:21.148Z,6.78
2023-05-02T20:18:47.989Z,5.43
2023-05-02T20:21:14.906Z,5.15
2023-05-02T20:23:43.336Z,6.03
2023-05-02T20:26:10.316Z,6.32
2023-05-02T20:28:37.827Z,5.13
2023-05-02T20:31:04.730Z,5.82
2023-05-02T20:33:43.745Z,5.82
2023-05-02T20:36:12.803Z,6.97
2023-05-02T20:38:42.130Z,6.75
2023-05-02T20:41:12.443Z,6.00
2023-05-02T20:43:40.196Z,6.22
2023-05-02T20:46:11.878Z,5.97
2023-05-02T20:48:38.871Z,6.25
2023-05-02T20:51:05.663Z,6.53
2023-05-02T20:53:32.293Z,7.00
2023-05-02T20:55:58.927Z,6.47
2023-05-02T20:58:26.205Z,5.63
2023-05-02T21:00:53.980Z,6.72
2023-05-02T21:03:21.355Z,6.40
2023-05-02T21:05:55.938Z,7.07
2023-05-02T21:08:23.089Z,7.05
2023-05-02T21:10:49.847Z,6.65
2023-05-02T21:13:16.555Z,6.90
2023-05-02T21:15:43.443Z,6.40
2023-05-02T21:18:10.203Z,6.70
2023-05-02T21:20:38.158Z,6.80
2023-05-02T21:23:04.907Z,7.03
2023-05-02T21:25:31.606Z,6.88
2023-05-02T21:27:58.274Z,6.88
2023-05-02T21:30:24.994Z,6.70
2023-05-02T21:32:51.747Z,6.78
2023-05-02T21:35:18.438Z,6.80
2023-05-02T21:37:45.221Z,6.50
2023-05-02T21:40:12.462Z,6.55
2023-05-02T21:42:39.257Z,7.63
2023-05-02T21:45:06.859Z,6.85
2023-05-02T21:47:33.642Z,7.07
2023-05-02T21:50:00.704Z,6.63
2023-05-02T21:52:28.103Z,6.75
2023-05-02T21:54:54.767Z,7.30
2023-05-02T21:57:21.413Z,8.18
2023-05-02T21:59:48.125Z,7.57
2023-05-02T22:02:14.983Z,7.13
2023-05-02T22:04:41.775Z,7.32
2023-05-02T22:07:08.514Z,8.20
2023-05-02T22:09:35.244Z,8.20
2023-05-02T22:12:02.929Z,7.00
2023-05-02T22:14:37.590Z,6.97
2023-05-02T22:17:11.219Z,6.20
2023-05-02T22:19:39.207Z,7.38
2023-05-02T22:22:06.536Z,7.53
2023-05-02T22:24:33.585Z,7.00
2023-05-02T22:27:00.222Z,6.85
2023-05-02T22:29:26.963Z,7.45
2023-05-02T22:31:53.628Z,7.95
2023-05-02T22:34:20.365Z,7.75
2023-05-02T22:36:47.071Z,8.20
2023-05-02T22:39:15.650Z,7.05
2023-05-02T22:41:43.185Z,8.23
2023-05-02T22:44:11.037Z,7.60
2023-05-02T22:46:38.619Z,8.45
2023-05-02T22:49:07.629Z,7.82
2023-05-02T22:51:34.315Z,8.38
2023-05-02T22:54:03.067Z,7.60
2023-05-02T22:56:29.706Z,8.85
2023-05-02T22:58:56.462Z,8.18
2023-05-02T23:01:23.139Z,9.32
2023-05-02T23:03:50.079Z,9.98
2023-05-02T23:06:17.160Z,7.38
2023-05-02T23:08:43.913Z,8.98
2023-05-02T23:11:10.633Z,7.25
2023-05-02T23:13:37.344Z,8.68
2023-05-02T23:16:04.735Z,8.00
2023-05-02T23:18:31.619Z,8.23
2023-05-02T23:20:58.260Z,7.50
2023-05-02T23:23:24.920Z,7.70
2023-05-02T23:25:51.630Z,8.35
2023-05-02T23:28:18.247Z,8.13
2023-05-02T23:30:45.296Z,8.52
2023-05-02T23:33:12.169Z,8.25
2023-05-02T23:35:38.897Z,7.72
2023-05-02T23:38:07.719Z,8.75
2023-05-02T23:40:34.715Z,8.02
2023-05-02T23:43:01.639Z,8.75
2023-05-02T23:45:28.316Z,7.82
2023-05-02T23:47:55.711Z,8.13
2023-05-02T23:50:22.462Z,8.82
2023-05-02T23:52:49.126Z,8.25
2023-05-02T23:55:15.850Z,9.02
2023-05-02T23:57:42.627Z,9.25
